Terminal Aerodrome Forecast
Issued by NWS

Home | Current Version | Previous Version | Text Only | Print | Product List | Glossary On
Versions: 1 2 3 4 5 6 7 8 9 10 11 12 13 14 15 16 17
000
FTUS44 KLZK 292145 AAA
TAFLLQ
TAF AMD
KLLQ 292145Z 2922/3018 VRB03KT P6SM VCTS SCT040CB BKN100 OVC250
      TEMPO 2922/2924 VRB15G30KT 4SM TSRA BR BKN040CB OVC080
     FM300100 VRB03KT P6SM FEW030 SCT050 BKN120
     FM301030 00000KT 4SM BR FEW250
     FM301400 VRB03KT P6SM SKC=

USA.gov is the U.S. government's official web portal to all federal, state and local government web resources and services.